sensor_id;sensor_type;location;lat;lon;timestamp;P1;durP1;ratioP1;P2;durP2;ratioP2
64826;SDS011;51265;53.972;12.286;2023-01-28T00:01:25;0.80;;;0.40;;
64826;SDS011;51265;53.972;12.286;2023-01-28T00:03:51;1.92;;;0.60;;
64826;SDS011;51265;53.972;12.286;2023-01-28T00:06:17;0.57;;;0.32;;
64826;SDS011;51265;53.972;12.286;2023-01-28T00:08:44;1.30;;;0.68;;
64826;SDS011;51265;53.972;12.286;2023-01-28T00:11:11;1.58;;;0.40;;
64826;SDS011;51265;53.972;12.286;2023-01-28T00:13:38;1.55;;;0.45;;
64826;SDS011;51265;53.972;12.286;2023-01-28T00:16:05;2.05;;;0.50;;
64826;SDS011;51265;53.972;12.286;2023-01-28T00:18:36;1.13;;;0.70;;
64826;SDS011;51265;53.972;12.286;2023-01-28T00:21:04;4.15;;;0.60;;
64826;SDS011;51265;53.972;12.286;2023-01-28T00:23:32;1.55;;;0.60;;
64826;SDS011;51265;53.972;12.286;2023-01-28T00:26:01;1.60;;;0.63;;
64826;SDS011;51265;53.972;12.286;2023-01-28T00:28:29;0.82;;;0.40;;
64826;SDS011;51265;53.972;12.286;2023-01-28T00:30:56;0.80;;;0.38;;
64826;SDS011;51265;53.972;12.286;2023-01-28T00:33:22;1.63;;;0.40;;
64826;SDS011;51265;53.972;12.286;2023-01-28T00:36:00;1.75;;;0.50;;
64826;SDS011;51265;53.972;12.286;2023-01-28T00:38:28;0.95;;;0.25;;
64826;SDS011;51265;53.972;12.286;2023-01-28T00:40:54;2.05;;;0.40;;
64826;SDS011;51265;53.972;12.286;2023-01-28T00:43:22;1.83;;;0.50;;
64826;SDS011;51265;53.972;12.286;2023-01-28T00:45:48;1.15;;;0.43;;
64826;SDS011;51265;53.972;12.286;2023-01-28T00:48:14;1.08;;;0.50;;
64826;SDS011;51265;53.972;12.286;2023-01-28T00:50:41;1.33;;;0.40;;
64826;SDS011;51265;53.972;12.286;2023-01-28T00:53:07;3.25;;;0.50;;
64826;SDS011;51265;53.972;12.286;2023-01-28T00:55:33;3.03;;;0.43;;
64826;SDS011;51265;53.972;12.286;2023-01-28T00:57:59;2.13;;;0.40;;
64826;SDS011;51265;53.972;12.286;2023-01-28T01:00:25;2.40;;;0.55;;
64826;SDS011;51265;53.972;12.286;2023-01-28T01:02:52;2.28;;;0.40;;
64826;SDS011;51265;53.972;12.286;2023-01-28T01:05:18;2.35;;;0.50;;
64826;SDS011;51265;53.972;12.286;2023-01-28T01:07:44;1.77;;;0.30;;
64826;SDS011;51265;53.972;12.286;2023-01-28T01:10:11;1.25;;;0.35;;
64826;SDS011;51265;53.972;12.286;2023-01-28T01:12:40;1.33;;;0.40;;
64826;SDS011;51265;53.972;12.286;2023-01-28T01:15:08;2.70;;;0.50;;
64826;SDS011;51265;53.972;12.286;2023-01-28T01:17:35;1.00;;;0.45;;
64826;SDS011;51265;53.972;12.286;2023-01-28T01:20:07;1.08;;;0.55;;
64826;SDS011;51265;53.972;12.286;2023-01-28T01:22:37;3.20;;;0.63;;
64826;SDS011;51265;53.972;12.286;2023-01-28T01:25:04;1.38;;;0.50;;
64826;SDS011;51265;53.972;12.286;2023-01-28T01:27:31;0.75;;;0.32;;
64826;SDS011;51265;53.972;12.286;2023-01-28T01:29:58;1.25;;;0.30;;
64826;SDS011;51265;53.972;12.286;2023-01-28T01:32:29;1.48;;;0.40;;
64826;SDS011;51265;53.972;12.286;2023-01-28T01:34:56;0.88;;;0.30;;
64826;SDS011;51265;53.972;12.286;2023-01-28T01:37:24;0.93;;;0.35;;
64826;SDS011;51265;53.972;12.286;2023-01-28T01:39:50;1.23;;;0.40;;
64826;SDS011;51265;53.972;12.286;2023-01-28T01:42:17;3.10;;;0.40;;
64826;SDS011;51265;53.972;12.286;2023-01-28T01:47:31;1.45;;;0.30;;
64826;SDS011;51265;53.972;12.286;2023-01-28T01:50:25;2.70;;;0.38;;
64826;SDS011;51265;53.972;12.286;2023-01-28T01:52:57;1.20;;;0.43;;
64826;SDS011;51265;53.972;12.286;2023-01-28T01:55:32;2.88;;;0.50;;
64826;SDS011;51265;53.972;12.286;2023-01-28T01:58:03;0.98;;;0.50;;
64826;SDS011;51265;53.972;12.286;2023-01-28T02:00:31;2.05;;;0.30;;
64826;SDS011;51265;53.972;12.286;2023-01-28T02:02:58;0.68;;;0.32;;
64826;SDS011;51265;53.972;12.286;2023-01-28T02:05:24;3.42;;;0.60;;
64826;SDS011;51265;53.972;12.286;2023-01-28T02:07:52;0.82;;;0.30;;
64826;SDS011;51265;53.972;12.286;2023-01-28T02:10:21;2.30;;;0.40;;
64826;SDS011;51265;53.972;12.286;2023-01-28T02:12:51;4.97;;;0.60;;
64826;SDS011;51265;53.972;12.286;2023-01-28T02:15:25;0.98;;;0.45;;
64826;SDS011;51265;53.972;12.286;2023-01-28T02:17:51;0.43;;;0.30;;
64826;SDS011;51265;53.972;12.286;2023-01-28T02:20:18;1.55;;;0.40;;
64826;SDS011;51265;53.972;12.286;2023-01-28T02:28:18;0.88;;;0.40;;
64826;SDS011;51265;53.972;12.286;2023-01-28T02:31:22;2.25;;;0.77;;
64826;SDS011;51265;53.972;12.286;2023-01-28T02:34:05;1.10;;;0.60;;
64826;SDS011;51265;53.972;12.286;2023-01-28T02:36:43;0.95;;;0.45;;
64826;SDS011;51265;53.972;12.286;2023-01-28T02:39:15;3.38;;;1.65;;
64826;SDS011;51265;53.972;12.286;2023-01-28T02:41:47;1.48;;;0.60;;
64826;SDS011;51265;53.972;12.286;2023-01-28T02:44:19;3.67;;;0.80;;
64826;SDS011;51265;53.972;12.286;2023-01-28T02:46:45;1.00;;;0.60;;
64826;SDS011;51265;53.972;12.286;2023-01-28T02:49:32;1.50;;;0.50;;
64826;SDS011;51265;53.972;12.286;2023-01-28T02:52:17;2.08;;;0.93;;
64826;SDS011;51265;53.972;12.286;2023-01-28T02:55:37;1.90;;;0.80;;
64826;SDS011;51265;53.972;12.286;2023-01-28T02:58:51;2.30;;;0.80;;
64826;SDS011;51265;53.972;12.286;2023-01-28T03:01:12;1.65;;;0.70;;
64826;SDS011;51265;53.972;12.286;2023-01-28T03:06:47;4.20;;;1.25;;
64826;SDS011;51265;53.972;12.286;2023-01-28T03:09:18;2.55;;;0.80;;
64826;SDS011;51265;53.972;12.286;2023-01-28T03:14:45;1.63;;;0.70;;
64826;SDS011;51265;53.972;12.286;2023-01-28T03:23:56;2.97;;;0.60;;
64826;SDS011;51265;53.972;12.286;2023-01-28T03:26:48;2.63;;;0.90;;
64826;SDS011;51265;53.972;12.286;2023-01-28T03:29:58;0.90;;;0.65;;
64826;SDS011;51265;53.972;12.286;2023-01-28T03:32:47;2.00;;;0.93;;
64826;SDS011;51265;53.972;12.286;2023-01-28T03:35:34;1.60;;;0.77;;
64826;SDS011;51265;53.972;12.286;2023-01-28T03:38:20;1.55;;;0.82;;
64826;SDS011;51265;53.972;12.286;2023-01-28T03:40:53;3.35;;;0.60;;
64826;SDS011;51265;53.972;12.286;2023-01-28T03:43:22;1.17;;;0.60;;
64826;SDS011;51265;53.972;12.286;2023-01-28T03:45:49;1.60;;;0.90;;
64826;SDS011;51265;53.972;12.286;2023-01-28T03:48:20;0.93;;;0.70;;
64826;SDS011;51265;53.972;12.286;2023-01-28T03:50:48;1.45;;;0.95;;
64826;SDS011;51265;53.972;12.286;2023-01-28T03:53:15;1.73;;;0.70;;
64826;SDS011;51265;53.972;12.286;2023-01-28T03:55:45;3.17;;;1.13;;
64826;SDS011;51265;53.972;12.286;2023-01-28T03:58:13;2.92;;;0.90;;
64826;SDS011;51265;53.972;12.286;2023-01-28T04:00:40;2.85;;;1.15;;
64826;SDS011;51265;53.972;12.286;2023-01-28T04:03:10;1.83;;;0.77;;
64826;SDS011;51265;53.972;12.286;2023-01-28T04:05:43;1.33;;;0.95;;
64826;SDS011;51265;53.972;12.286;2023-01-28T04:08:34;3.13;;;0.85;;
64826;SDS011;51265;53.972;12.286;2023-01-28T04:11:24;3.70;;;0.90;;
64826;SDS011;51265;53.972;12.286;2023-01-28T04:13:51;2.25;;;1.00;;
64826;SDS011;51265;53.972;12.286;2023-01-28T04:16:18;1.83;;;1.10;;
64826;SDS011;51265;53.972;12.286;2023-01-28T04:18:45;2.00;;;0.80;;
64826;SDS011;51265;53.972;12.286;2023-01-28T04:21:13;1.73;;;0.93;;
64826;SDS011;51265;53.972;12.286;2023-01-28T04:23:39;1.25;;;0.80;;
64826;SDS011;51265;53.972;12.286;2023-01-28T04:26:06;4.30;;;0.95;;
64826;SDS011;51265;53.972;12.286;2023-01-28T04:28:33;3.63;;;1.27;;
64826;SDS011;51265;53.972;12.286;2023-01-28T04:31:00;2.15;;;0.80;;
64826;SDS011;51265;53.972;12.286;2023-01-28T04:33:51;1.20;;;0.70;;
64826;SDS011;51265;53.972;12.286;2023-01-28T04:36:44;2.38;;;0.70;;
64826;SDS011;51265;53.972;12.286;2023-01-28T04:39:39;1.45;;;0.90;;
64826;SDS011;51265;53.972;12.286;2023-01-28T04:42:34;2.25;;;0.90;;
64826;SDS011;51265;53.972;12.286;2023-01-28T04:45:08;2.30;;;0.80;;
64826;SDS011;51265;53.972;12.286;2023-01-28T04:47:57;1.58;;;0.80;;
64826;SDS011;51265;53.972;12.286;2023-01-28T04:50:42;3.30;;;0.82;;
64826;SDS011;51265;53.972;12.286;2023-01-28T04:53:26;1.77;;;0.70;;
64826;SDS011;51265;53.972;12.286;2023-01-28T04:55:56;2.83;;;1.00;;
64826;SDS011;51265;53.972;12.286;2023-01-28T04:58:24;3.72;;;1.10;;
64826;SDS011;51265;53.972;12.286;2023-01-28T05:00:54;5.40;;;1.00;;
64826;SDS011;51265;53.972;12.286;2023-01-28T05:03:21;2.28;;;1.02;;
64826;SDS011;51265;53.972;12.286;2023-01-28T05:05:48;3.17;;;0.90;;
64826;SDS011;51265;53.972;12.286;2023-01-28T05:08:34;2.85;;;1.20;;
64826;SDS011;51265;53.972;12.286;2023-01-28T05:11:00;7.65;;;1.30;;
64826;SDS011;51265;53.972;12.286;2023-01-28T05:13:26;4.20;;;1.25;;
64826;SDS011;51265;53.972;12.286;2023-01-28T05:15:53;4.00;;;1.40;;
64826;SDS011;51265;53.972;12.286;2023-01-28T05:18:19;2.55;;;1.10;;
64826;SDS011;51265;53.972;12.286;2023-01-28T05:20:56;4.07;;;1.40;;
64826;SDS011;51265;53.972;12.286;2023-01-28T05:23:23;2.03;;;1.35;;
64826;SDS011;51265;53.972;12.286;2023-01-28T05:25:53;4.68;;;1.35;;
64826;SDS011;51265;53.972;12.286;2023-01-28T05:28:19;2.38;;;1.23;;
64826;SDS011;51265;53.972;12.286;2023-01-28T05:30:46;3.50;;;1.70;;
64826;SDS011;51265;53.972;12.286;2023-01-28T05:33:12;3.33;;;1.50;;
64826;SDS011;51265;53.972;12.286;2023-01-28T05:35:38;2.33;;;1.20;;
64826;SDS011;51265;53.972;12.286;2023-01-28T05:38:05;4.13;;;1.30;;
64826;SDS011;51265;53.972;12.286;2023-01-28T05:40:31;3.35;;;1.13;;
64826;SDS011;51265;53.972;12.286;2023-01-28T05:42:57;3.15;;;1.15;;
64826;SDS011;51265;53.972;12.286;2023-01-28T05:45:38;2.30;;;1.63;;
64826;SDS011;51265;53.972;12.286;2023-01-28T05:48:08;4.47;;;1.65;;
64826;SDS011;51265;53.972;12.286;2023-01-28T05:50:53;2.92;;;1.70;;
64826;SDS011;51265;53.972;12.286;2023-01-28T05:53:27;5.75;;;1.80;;
64826;SDS011;51265;53.972;12.286;2023-01-28T05:55:54;4.30;;;1.45;;
64826;SDS011;51265;53.972;12.286;2023-01-28T05:58:21;4.50;;;1.50;;
64826;SDS011;51265;53.972;12.286;2023-01-28T06:00:48;5.30;;;1.35;;
64826;SDS011;51265;53.972;12.286;2023-01-28T06:03:17;3.42;;;1.38;;
64826;SDS011;51265;53.972;12.286;2023-01-28T06:05:45;3.15;;;1.60;;
64826;SDS011;51265;53.972;12.286;2023-01-28T06:08:11;3.75;;;1.30;;
64826;SDS011;51265;53.972;12.286;2023-01-28T06:10:37;3.58;;;1.60;;
64826;SDS011;51265;53.972;12.286;2023-01-28T06:13:03;3.88;;;1.40;;
64826;SDS011;51265;53.972;12.286;2023-01-28T06:15:48;3.15;;;1.60;;
64826;SDS011;51265;53.972;12.286;2023-01-28T06:18:35;3.65;;;1.42;;
64826;SDS011;51265;53.972;12.286;2023-01-28T06:21:02;2.05;;;1.13;;
64826;SDS011;51265;53.972;12.286;2023-01-28T06:23:28;4.10;;;1.52;;
64826;SDS011;51265;53.972;12.286;2023-01-28T06:25:54;3.92;;;1.23;;
64826;SDS011;51265;53.972;12.286;2023-01-28T06:28:22;3.42;;;1.15;;
64826;SDS011;51265;53.972;12.286;2023-01-28T06:30:50;1.55;;;0.98;;
64826;SDS011;51265;53.972;12.286;2023-01-28T06:33:17;5.32;;;1.38;;
64826;SDS011;51265;53.972;12.286;2023-01-28T06:35:43;1.70;;;0.98;;
64826;SDS011;51265;53.972;12.286;2023-01-28T06:38:10;7.53;;;1.33;;
64826;SDS011;51265;53.972;12.286;2023-01-28T06:40:37;3.25;;;1.17;;
64826;SDS011;51265;53.972;12.286;2023-01-28T06:43:04;2.85;;;1.23;;
64826;SDS011;51265;53.972;12.286;2023-01-28T06:45:31;4.43;;;1.30;;
64826;SDS011;51265;53.972;12.286;2023-01-28T06:47:58;3.90;;;1.40;;
64826;SDS011;51265;53.972;12.286;2023-01-28T06:50:24;2.15;;;1.25;;
64826;SDS011;51265;53.972;12.286;2023-01-28T06:52:50;2.97;;;1.13;;
64826;SDS011;51265;53.972;12.286;2023-01-28T06:55:17;2.47;;;1.20;;
64826;SDS011;51265;53.972;12.286;2023-01-28T06:57:43;2.30;;;1.25;;
64826;SDS011;51265;53.972;12.286;2023-01-28T07:00:10;3.40;;;1.45;;
64826;SDS011;51265;53.972;12.286;2023-01-28T07:02:38;2.75;;;1.58;;
64826;SDS011;51265;53.972;12.286;2023-01-28T07:05:04;5.78;;;1.88;;
64826;SDS011;51265;53.972;12.286;2023-01-28T07:07:31;2.72;;;1.77;;
64826;SDS011;51265;53.972;12.286;2023-01-28T07:09:57;4.70;;;1.80;;
64826;SDS011;51265;53.972;12.286;2023-01-28T07:12:23;4.18;;;1.70;;
64826;SDS011;51265;53.972;12.286;2023-01-28T07:14:49;3.95;;;1.88;;
64826;SDS011;51265;53.972;12.286;2023-01-28T07:17:16;3.47;;;2.00;;
64826;SDS011;51265;53.972;12.286;2023-01-28T07:19:42;4.07;;;2.15;;
64826;SDS011;51265;53.972;12.286;2023-01-28T07:22:08;6.13;;;2.70;;
64826;SDS011;51265;53.972;12.286;2023-01-28T07:24:34;5.57;;;2.63;;
64826;SDS011;51265;53.972;12.286;2023-01-28T07:27:00;3.15;;;2.05;;
64826;SDS011;51265;53.972;12.286;2023-01-28T07:29:26;4.63;;;2.20;;
64826;SDS011;51265;53.972;12.286;2023-01-28T07:31:53;6.65;;;2.08;;
64826;SDS011;51265;53.972;12.286;2023-01-28T07:34:19;4.38;;;2.30;;
64826;SDS011;51265;53.972;12.286;2023-01-28T07:36:45;3.25;;;2.13;;
64826;SDS011;51265;53.972;12.286;2023-01-28T07:39:11;3.30;;;2.30;;
64826;SDS011;51265;53.972;12.286;2023-01-28T07:41:37;3.05;;;2.10;;
64826;SDS011;51265;53.972;12.286;2023-01-28T07:44:05;3.35;;;2.30;;
64826;SDS011;51265;53.972;12.286;2023-01-28T07:46:31;5.80;;;2.90;;
64826;SDS011;51265;53.972;12.286;2023-01-28T07:48:57;8.40;;;2.50;;
64826;SDS011;51265;53.972;12.286;2023-01-28T07:51:24;8.30;;;2.60;;
64826;SDS011;51265;53.972;12.286;2023-01-28T07:53:50;7.35;;;3.30;;
64826;SDS011;51265;53.972;12.286;2023-01-28T07:56:16;8.27;;;3.13;;
64826;SDS011;51265;53.972;12.286;2023-01-28T07:58:43;7.25;;;3.25;;
64826;SDS011;51265;53.972;12.286;2023-01-28T08:01:09;5.63;;;3.53;;
64826;SDS011;51265;53.972;12.286;2023-01-28T08:03:35;7.47;;;3.78;;
64826;SDS011;51265;53.972;12.286;2023-01-28T08:06:01;7.38;;;4.05;;
64826;SDS011;51265;53.972;12.286;2023-01-28T08:08:27;9.98;;;4.10;;
64826;SDS011;51265;53.972;12.286;2023-01-28T08:10:54;9.32;;;4.63;;
64826;SDS011;51265;53.972;12.286;2023-01-28T08:13:20;10.02;;;4.93;;
64826;SDS011;51265;53.972;12.286;2023-01-28T08:15:46;7.80;;;4.80;;
64826;SDS011;51265;53.972;12.286;2023-01-28T08:18:13;9.23;;;5.07;;
64826;SDS011;51265;53.972;12.286;2023-01-28T08:20:41;8.60;;;4.20;;
64826;SDS011;51265;53.972;12.286;2023-01-28T08:23:16;9.90;;;5.00;;
64826;SDS011;51265;53.972;12.286;2023-01-28T08:25:44;7.32;;;4.95;;
64826;SDS011;51265;53.972;12.286;2023-01-28T08:28:11;9.02;;;5.10;;
64826;SDS011;51265;53.972;12.286;2023-01-28T08:30:39;7.10;;;4.88;;
64826;SDS011;51265;53.972;12.286;2023-01-28T08:33:06;8.27;;;4.50;;
64826;SDS011;51265;53.972;12.286;2023-01-28T08:35:33;8.25;;;4.20;;
64826;SDS011;51265;53.972;12.286;2023-01-28T08:38:00;7.20;;;4.25;;
64826;SDS011;51265;53.972;12.286;2023-01-28T08:40:28;8.35;;;4.40;;
64826;SDS011;51265;53.972;12.286;2023-01-28T08:42:55;7.43;;;3.95;;
64826;SDS011;51265;53.972;12.286;2023-01-28T08:45:22;8.95;;;4.30;;
64826;SDS011;51265;53.972;12.286;2023-01-28T08:50:36;10.52;;;4.30;;
64826;SDS011;51265;53.972;12.286;2023-01-28T08:53:05;9.02;;;3.90;;
64826;SDS011;51265;53.972;12.286;2023-01-28T08:55:33;13.30;;;4.20;;
64826;SDS011;51265;53.972;12.286;2023-01-28T08:58:03;7.85;;;4.03;;
64826;SDS011;51265;53.972;12.286;2023-01-28T09:00:30;8.93;;;4.38;;
64826;SDS011;51265;53.972;12.286;2023-01-28T09:02:57;6.95;;;4.15;;
64826;SDS011;51265;53.972;12.286;2023-01-28T09:05:24;10.90;;;4.57;;
64826;SDS011;51265;53.972;12.286;2023-01-28T09:07:50;9.52;;;4.35;;
64826;SDS011;51265;53.972;12.286;2023-01-28T09:10:16;6.93;;;3.90;;
64826;SDS011;51265;53.972;12.286;2023-01-28T09:12:45;9.43;;;4.10;;
64826;SDS011;51265;53.972;12.286;2023-01-28T09:15:11;6.95;;;4.60;;
64826;SDS011;51265;53.972;12.286;2023-01-28T09:17:38;9.20;;;4.65;;
64826;SDS011;51265;53.972;12.286;2023-01-28T09:20:04;6.70;;;3.88;;
64826;SDS011;51265;53.972;12.286;2023-01-28T09:22:31;6.63;;;3.78;;
64826;SDS011;51265;53.972;12.286;2023-01-28T09:24:58;6.60;;;4.03;;
64826;SDS011;51265;53.972;12.286;2023-01-28T09:27:44;6.60;;;4.00;;
64826;SDS011;51265;53.972;12.286;2023-01-28T09:30:11;7.70;;;4.35;;
64826;SDS011;51265;53.972;12.286;2023-01-28T09:32:38;5.78;;;4.22;;
64826;SDS011;51265;53.972;12.286;2023-01-28T09:35:20;7.20;;;4.30;;
64826;SDS011;51265;53.972;12.286;2023-01-28T09:37:47;5.90;;;3.75;;
64826;SDS011;51265;53.972;12.286;2023-01-28T09:40:18;6.45;;;3.70;;
64826;SDS011;51265;53.972;12.286;2023-01-28T09:42:54;5.07;;;2.50;;
64826;SDS011;51265;53.972;12.286;2023-01-28T09:45:50;7.68;;;3.10;;
64826;SDS011;51265;53.972;12.286;2023-01-28T09:48:21;7.47;;;3.05;;
64826;SDS011;51265;53.972;12.286;2023-01-28T09:50:55;4.80;;;3.10;;
64826;SDS011;51265;53.972;12.286;2023-01-28T09:53:23;5.80;;;3.58;;
64826;SDS011;51265;53.972;12.286;2023-01-28T09:55:54;4.47;;;2.50;;
64826;SDS011;51265;53.972;12.286;2023-01-28T09:58:22;7.30;;;3.15;;
64826;SDS011;51265;53.972;12.286;2023-01-28T10:03:32;4.13;;;2.50;;
64826;SDS011;51265;53.972;12.286;2023-01-28T10:08:50;6.93;;;3.42;;
64826;SDS011;51265;53.972;12.286;2023-01-28T10:11:20;6.93;;;3.33;;
64826;SDS011;51265;53.972;12.286;2023-01-28T10:14:12;5.60;;;3.40;;
64826;SDS011;51265;53.972;12.286;2023-01-28T10:16:48;7.00;;;3.13;;
64826;SDS011;51265;53.972;12.286;2023-01-28T10:22:02;6.93;;;2.90;;
64826;SDS011;51265;53.972;12.286;2023-01-28T10:24:34;6.28;;;3.00;;
64826;SDS011;51265;53.972;12.286;2023-01-28T10:27:07;5.70;;;3.08;;
64826;SDS011;51265;53.972;12.286;2023-01-28T10:29:37;7.03;;;2.53;;
64826;SDS011;51265;53.972;12.286;2023-01-28T10:32:13;5.13;;;2.63;;
64826;SDS011;51265;53.972;12.286;2023-01-28T10:34:47;7.75;;;3.00;;
64826;SDS011;51265;53.972;12.286;2023-01-28T10:37:13;7.03;;;2.72;;
64826;SDS011;51265;53.972;12.286;2023-01-28T10:39:41;4.82;;;2.17;;
64826;SDS011;51265;53.972;12.286;2023-01-28T10:42:15;3.45;;;1.35;;
64826;SDS011;51265;53.972;12.286;2023-01-28T10:44:43;6.13;;;2.25;;
64826;SDS011;51265;53.972;12.286;2023-01-28T10:47:12;3.03;;;1.38;;
64826;SDS011;51265;53.972;12.286;2023-01-28T10:49:43;8.88;;;3.88;;
64826;SDS011;51265;53.972;12.286;2023-01-28T10:52:13;3.72;;;1.65;;
64826;SDS011;51265;53.972;12.286;2023-01-28T10:54:40;3.65;;;2.05;;
64826;SDS011;51265;53.972;12.286;2023-01-28T10:57:09;4.43;;;2.22;;
64826;SDS011;51265;53.972;12.286;2023-01-28T10:59:38;4.95;;;2.40;;
64826;SDS011;51265;53.972;12.286;2023-01-28T11:05:04;8.07;;;2.53;;
64826;SDS011;51265;53.972;12.286;2023-01-28T11:07:46;4.28;;;2.20;;
64826;SDS011;51265;53.972;12.286;2023-01-28T11:10:23;3.65;;;1.83;;
64826;SDS011;51265;53.972;12.286;2023-01-28T11:12:54;5.63;;;2.63;;
64826;SDS011;51265;53.972;12.286;2023-01-28T11:15:25;2.35;;;1.40;;
64826;SDS011;51265;53.972;12.286;2023-01-28T11:17:54;3.35;;;1.80;;
64826;SDS011;51265;53.972;12.286;2023-01-28T11:20:34;3.65;;;1.90;;
64826;SDS011;51265;53.972;12.286;2023-01-28T11:23:03;5.65;;;2.20;;
64826;SDS011;51265;53.972;12.286;2023-01-28T11:25:30;5.47;;;2.33;;
64826;SDS011;51265;53.972;12.286;2023-01-28T11:28:04;4.68;;;1.75;;
64826;SDS011;51265;53.972;12.286;2023-01-28T11:30:39;3.30;;;1.63;;
64826;SDS011;51265;53.972;12.286;2023-01-28T11:35:54;4.70;;;2.20;;
64826;SDS011;51265;53.972;12.286;2023-01-28T11:38:24;2.65;;;1.83;;
64826;SDS011;51265;53.972;12.286;2023-01-28T11:43:19;4.43;;;2.00;;
64826;SDS011;51265;53.972;12.286;2023-01-28T11:45:51;4.30;;;2.40;;
64826;SDS011;51265;53.972;12.286;2023-01-28T11:51:35;4.97;;;2.25;;
64826;SDS011;51265;53.972;12.286;2023-01-28T11:57:06;7.22;;;2.65;;
64826;SDS011;51265;53.972;12.286;2023-01-28T11:59:45;7.20;;;2.53;;
64826;SDS011;51265;53.972;12.286;2023-01-28T12:13:23;4.90;;;2.20;;
64826;SDS011;51265;53.972;12.286;2023-01-28T12:16:16;4.10;;;2.58;;
64826;SDS011;51265;53.972;12.286;2023-01-28T12:22:13;6.70;;;2.50;;
64826;SDS011;51265;53.972;12.286;2023-01-28T12:27:33;5.88;;;3.13;;
64826;SDS011;51265;53.972;12.286;2023-01-28T12:33:23;7.55;;;2.95;;
64826;SDS011;51265;53.972;12.286;2023-01-28T12:35:55;5.13;;;2.80;;
64826;SDS011;51265;53.972;12.286;2023-01-28T12:38:56;5.65;;;3.10;;
64826;SDS011;51265;53.972;12.286;2023-01-28T12:41:36;5.70;;;3.00;;
64826;SDS011;51265;53.972;12.286;2023-01-28T12:44:09;4.88;;;2.22;;
64826;SDS011;51265;53.972;12.286;2023-01-28T12:46:44;4.47;;;2.10;;
64826;SDS011;51265;53.972;12.286;2023-01-28T12:52:31;4.38;;;2.38;;
64826;SDS011;51265;53.972;12.286;2023-01-28T12:57:38;5.57;;;2.95;;
64826;SDS011;51265;53.972;12.286;2023-01-28T13:01:06;6.32;;;2.60;;
64826;SDS011;51265;53.972;12.286;2023-01-28T13:05:59;6.28;;;2.35;;
64826;SDS011;51265;53.972;12.286;2023-01-28T13:08:29;3.72;;;2.67;;
64826;SDS011;51265;53.972;12.286;2023-01-28T13:10:56;3.35;;;2.22;;
64826;SDS011;51265;53.972;12.286;2023-01-28T13:13:28;4.88;;;2.40;;
64826;SDS011;51265;53.972;12.286;2023-01-28T13:15:57;9.70;;;2.97;;
64826;SDS011;51265;53.972;12.286;2023-01-28T13:21:15;4.93;;;2.80;;
64826;SDS011;51265;53.972;12.286;2023-01-28T13:23:45;6.20;;;2.47;;
64826;SDS011;51265;53.972;12.286;2023-01-28T13:28:46;4.18;;;2.70;;
64826;SDS011;51265;53.972;12.286;2023-01-28T13:31:14;6.95;;;3.47;;
64826;SDS011;51265;53.972;12.286;2023-01-28T13:33:46;6.10;;;2.60;;
64826;SDS011;51265;53.972;12.286;2023-01-28T13:36:28;4.05;;;2.95;;
64826;SDS011;51265;53.972;12.286;2023-01-28T13:39:00;5.10;;;2.67;;
64826;SDS011;51265;53.972;12.286;2023-01-28T13:41:37;6.97;;;2.92;;
64826;SDS011;51265;53.972;12.286;2023-01-28T13:46:52;7.55;;;3.45;;
64826;SDS011;51265;53.972;12.286;2023-01-28T13:49:43;5.35;;;3.10;;
64826;SDS011;51265;53.972;12.286;2023-01-28T13:54:45;8.65;;;2.95;;
64826;SDS011;51265;53.972;12.286;2023-01-28T14:03:44;5.97;;;3.70;;
64826;SDS011;51265;53.972;12.286;2023-01-28T14:12:13;7.45;;;3.95;;
64826;SDS011;51265;53.972;12.286;2023-01-28T14:17:51;7.35;;;4.10;;
64826;SDS011;51265;53.972;12.286;2023-01-28T14:20:20;8.82;;;4.97;;
64826;SDS011;51265;53.972;12.286;2023-01-28T14:22:48;9.40;;;4.47;;
64826;SDS011;51265;53.972;12.286;2023-01-28T14:25:17;11.95;;;5.18;;
64826;SDS011;51265;53.972;12.286;2023-01-28T14:27:52;7.45;;;4.63;;
64826;SDS011;51265;53.972;12.286;2023-01-28T14:33:09;8.70;;;6.05;;
64826;SDS011;51265;53.972;12.286;2023-01-28T14:35:37;9.15;;;4.93;;
64826;SDS011;51265;53.972;12.286;2023-01-28T14:38:11;7.57;;;4.60;;
64826;SDS011;51265;53.972;12.286;2023-01-28T14:40:41;8.52;;;4.88;;
64826;SDS011;51265;53.972;12.286;2023-01-28T14:43:12;9.00;;;5.20;;
64826;SDS011;51265;53.972;12.286;2023-01-28T14:45:53;9.57;;;5.03;;
64826;SDS011;51265;53.972;12.286;2023-01-28T14:51:15;10.88;;;5.38;;
64826;SDS011;51265;53.972;12.286;2023-01-28T14:59:45;8.88;;;4.80;;
64826;SDS011;51265;53.972;12.286;2023-01-28T15:02:26;7.30;;;4.85;;
64826;SDS011;51265;53.972;12.286;2023-01-28T15:04:56;7.07;;;4.60;;
64826;SDS011;51265;53.972;12.286;2023-01-28T15:07:33;12.27;;;4.90;;
64826;SDS011;51265;53.972;12.286;2023-01-28T15:10:20;11.25;;;6.03;;
64826;SDS011;51265;53.972;12.286;2023-01-28T15:12:54;7.20;;;5.57;;
64826;SDS011;51265;53.972;12.286;2023-01-28T15:17:57;7.80;;;5.53;;
64826;SDS011;51265;53.972;12.286;2023-01-28T15:20:28;8.43;;;5.55;;
64826;SDS011;51265;53.972;12.286;2023-01-28T15:22:55;9.25;;;5.70;;
64826;SDS011;51265;53.972;12.286;2023-01-28T15:25:22;10.75;;;6.35;;
64826;SDS011;51265;53.972;12.286;2023-01-28T15:27:52;10.05;;;5.95;;
64826;SDS011;51265;53.972;12.286;2023-01-28T15:30:24;9.15;;;5.95;;
64826;SDS011;51265;53.972;12.286;2023-01-28T15:32:57;13.65;;;5.80;;
64826;SDS011;51265;53.972;12.286;2023-01-28T15:35:29;9.77;;;5.60;;
64826;SDS011;51265;53.972;12.286;2023-01-28T15:37:56;7.93;;;5.75;;
64826;SDS011;51265;53.972;12.286;2023-01-28T15:40:23;9.77;;;5.80;;
64826;SDS011;51265;53.972;12.286;2023-01-28T15:42:51;8.98;;;5.30;;
64826;SDS011;51265;53.972;12.286;2023-01-28T15:45:19;8.43;;;5.82;;
64826;SDS011;51265;53.972;12.286;2023-01-28T15:47:47;8.88;;;5.63;;
64826;SDS011;51265;53.972;12.286;2023-01-28T15:50:19;7.38;;;5.10;;
64826;SDS011;51265;53.972;12.286;2023-01-28T15:52:48;10.50;;;5.43;;
64826;SDS011;51265;53.972;12.286;2023-01-28T15:55:35;9.48;;;5.55;;
64826;SDS011;51265;53.972;12.286;2023-01-28T16:00:36;8.55;;;5.68;;
64826;SDS011;51265;53.972;12.286;2023-01-28T16:03:09;9.35;;;5.93;;
64826;SDS011;51265;53.972;12.286;2023-01-28T16:05:37;9.73;;;5.65;;
64826;SDS011;51265;53.972;12.286;2023-01-28T16:08:22;9.77;;;5.47;;
64826;SDS011;51265;53.972;12.286;2023-01-28T16:11:01;11.00;;;6.35;;
64826;SDS011;51265;53.972;12.286;2023-01-28T16:13:30;8.50;;;5.50;;
64826;SDS011;51265;53.972;12.286;2023-01-28T16:15:58;8.07;;;5.25;;
64826;SDS011;51265;53.972;12.286;2023-01-28T16:18:39;10.02;;;5.57;;
64826;SDS011;51265;53.972;12.286;2023-01-28T16:21:19;7.95;;;5.22;;
64826;SDS011;51265;53.972;12.286;2023-01-28T16:24:02;6.97;;;5.15;;
64826;SDS011;51265;53.972;12.286;2023-01-28T16:26:29;9.50;;;5.15;;
64826;SDS011;51265;53.972;12.286;2023-01-28T16:28:59;10.13;;;5.28;;
64826;SDS011;51265;53.972;12.286;2023-01-28T16:31:36;9.20;;;5.20;;
64826;SDS011;51265;53.972;12.286;2023-01-28T16:34:02;10.52;;;5.28;;
64826;SDS011;51265;53.972;12.286;2023-01-28T16:36:28;10.68;;;5.40;;
64826;SDS011;51265;53.972;12.286;2023-01-28T16:38:55;10.55;;;4.90;;
64826;SDS011;51265;53.972;12.286;2023-01-28T16:41:25;10.23;;;5.25;;
64826;SDS011;51265;53.972;12.286;2023-01-28T16:43:53;8.55;;;5.75;;
64826;SDS011;51265;53.972;12.286;2023-01-28T16:46:20;7.63;;;5.18;;
64826;SDS011;51265;53.972;12.286;2023-01-28T16:48:46;9.98;;;5.30;;
64826;SDS011;51265;53.972;12.286;2023-01-28T16:51:15;10.93;;;5.80;;
64826;SDS011;51265;53.972;12.286;2023-01-28T16:53:44;8.73;;;5.40;;
64826;SDS011;51265;53.972;12.286;2023-01-28T16:56:16;10.32;;;5.22;;